sensor_id;sensor_type;location;lat;lon;timestamp;P1;durP1;ratioP1;P2;durP2;ratioP2
53533;SDS011;39421;53.204;6.568;2023-05-21T00:02:26;8.02;;;3.83;;
53533;SDS011;39421;53.204;6.568;2023-05-21T00:04:54;8.05;;;4.05;;
53533;SDS011;39421;53.204;6.568;2023-05-21T00:07:20;9.60;;;4.35;;
53533;SDS011;39421;53.204;6.568;2023-05-21T00:09:47;8.15;;;4.05;;
53533;SDS011;39421;53.204;6.568;2023-05-21T00:12:13;7.82;;;3.90;;
53533;SDS011;39421;53.204;6.568;2023-05-21T00:14:39;9.23;;;4.20;;
53533;SDS011;39421;53.204;6.568;2023-05-21T00:17:05;9.32;;;4.30;;
53533;SDS011;39421;53.204;6.568;2023-05-21T00:19:31;8.30;;;3.90;;
53533;SDS011;39421;53.204;6.568;2023-05-21T00:21:58;8.93;;;4.20;;
53533;SDS011;39421;53.204;6.568;2023-05-21T00:24:27;8.25;;;4.30;;
53533;SDS011;39421;53.204;6.568;2023-05-21T00:26:54;7.93;;;4.20;;
53533;SDS011;39421;53.204;6.568;2023-05-21T00:29:20;8.37;;;4.10;;
53533;SDS011;39421;53.204;6.568;2023-05-21T00:31:47;9.32;;;4.20;;
53533;SDS011;39421;53.204;6.568;2023-05-21T00:34:14;8.00;;;3.97;;
53533;SDS011;39421;53.204;6.568;2023-05-21T00:36:41;9.20;;;4.00;;
53533;SDS011;39421;53.204;6.568;2023-05-21T00:39:09;8.40;;;4.20;;
53533;SDS011;39421;53.204;6.568;2023-05-21T00:41:36;8.00;;;3.85;;
53533;SDS011;39421;53.204;6.568;2023-05-21T00:44:04;8.30;;;4.35;;
53533;SDS011;39421;53.204;6.568;2023-05-21T00:46:30;8.55;;;3.97;;
53533;SDS011;39421;53.204;6.568;2023-05-21T00:48:57;8.02;;;4.03;;
53533;SDS011;39421;53.204;6.568;2023-05-21T00:51:24;10.75;;;4.35;;
53533;SDS011;39421;53.204;6.568;2023-05-21T00:53:54;8.52;;;4.15;;
53533;SDS011;39421;53.204;6.568;2023-05-21T00:56:21;8.13;;;4.50;;
53533;SDS011;39421;53.204;6.568;2023-05-21T00:58:48;8.45;;;4.10;;
53533;SDS011;39421;53.204;6.568;2023-05-21T01:01:16;8.90;;;4.22;;
53533;SDS011;39421;53.204;6.568;2023-05-21T01:03:42;9.05;;;4.47;;
53533;SDS011;39421;53.204;6.568;2023-05-21T01:06:09;8.98;;;4.00;;
53533;SDS011;39421;53.204;6.568;2023-05-21T01:08:35;8.77;;;4.07;;
53533;SDS011;39421;53.204;6.568;2023-05-21T01:11:02;9.05;;;4.25;;
53533;SDS011;39421;53.204;6.568;2023-05-21T01:13:30;9.95;;;4.50;;
53533;SDS011;39421;53.204;6.568;2023-05-21T01:15:56;9.03;;;4.43;;
53533;SDS011;39421;53.204;6.568;2023-05-21T01:18:23;8.98;;;4.30;;
53533;SDS011;39421;53.204;6.568;2023-05-21T01:20:50;7.88;;;4.22;;
53533;SDS011;39421;53.204;6.568;2023-05-21T01:23:17;7.80;;;4.00;;
53533;SDS011;39421;53.204;6.568;2023-05-21T01:25:44;8.80;;;4.23;;
53533;SDS011;39421;53.204;6.568;2023-05-21T01:28:11;9.60;;;4.33;;
53533;SDS011;39421;53.204;6.568;2023-05-21T01:30:38;8.73;;;4.40;;
53533;SDS011;39421;53.204;6.568;2023-05-21T01:33:16;7.90;;;3.97;;
53533;SDS011;39421;53.204;6.568;2023-05-21T01:35:53;9.57;;;4.53;;
53533;SDS011;39421;53.204;6.568;2023-05-21T01:38:27;8.68;;;4.47;;
53533;SDS011;39421;53.204;6.568;2023-05-21T01:40:56;9.20;;;4.40;;
53533;SDS011;39421;53.204;6.568;2023-05-21T01:43:23;9.25;;;4.60;;
53533;SDS011;39421;53.204;6.568;2023-05-21T01:45:50;9.93;;;4.70;;
53533;SDS011;39421;53.204;6.568;2023-05-21T01:48:18;8.73;;;4.40;;
53533;SDS011;39421;53.204;6.568;2023-05-21T01:50:45;9.60;;;5.10;;
53533;SDS011;39421;53.204;6.568;2023-05-21T01:53:12;9.52;;;4.50;;
53533;SDS011;39421;53.204;6.568;2023-05-21T01:55:38;9.48;;;4.95;;
53533;SDS011;39421;53.204;6.568;2023-05-21T01:58:06;10.50;;;4.90;;
53533;SDS011;39421;53.204;6.568;2023-05-21T02:00:32;10.20;;;5.38;;
53533;SDS011;39421;53.204;6.568;2023-05-21T02:02:58;8.90;;;4.88;;
53533;SDS011;39421;53.204;6.568;2023-05-21T02:05:25;10.30;;;4.97;;
53533;SDS011;39421;53.204;6.568;2023-05-21T02:07:51;9.82;;;5.13;;
53533;SDS011;39421;53.204;6.568;2023-05-21T02:10:17;8.98;;;4.75;;
53533;SDS011;39421;53.204;6.568;2023-05-21T02:12:43;9.93;;;5.18;;
53533;SDS011;39421;53.204;6.568;2023-05-21T02:15:10;9.90;;;4.97;;
53533;SDS011;39421;53.204;6.568;2023-05-21T02:17:38;9.98;;;5.13;;
53533;SDS011;39421;53.204;6.568;2023-05-21T02:20:04;10.30;;;5.53;;
53533;SDS011;39421;53.204;6.568;2023-05-21T02:22:37;9.90;;;5.37;;
53533;SDS011;39421;53.204;6.568;2023-05-21T02:25:07;9.70;;;5.13;;
53533;SDS011;39421;53.204;6.568;2023-05-21T02:27:33;9.52;;;5.60;;
53533;SDS011;39421;53.204;6.568;2023-05-21T02:30:04;10.38;;;5.57;;
53533;SDS011;39421;53.204;6.568;2023-05-21T02:32:30;10.18;;;5.70;;
53533;SDS011;39421;53.204;6.568;2023-05-21T02:34:58;10.02;;;5.30;;
53533;SDS011;39421;53.204;6.568;2023-05-21T02:37:25;10.25;;;5.20;;
53533;SDS011;39421;53.204;6.568;2023-05-21T02:39:52;10.40;;;5.30;;
53533;SDS011;39421;53.204;6.568;2023-05-21T02:42:18;10.30;;;5.87;;
53533;SDS011;39421;53.204;6.568;2023-05-21T02:44:44;10.63;;;5.30;;
53533;SDS011;39421;53.204;6.568;2023-05-21T02:47:11;11.20;;;5.80;;
53533;SDS011;39421;53.204;6.568;2023-05-21T02:49:40;10.30;;;5.50;;
53533;SDS011;39421;53.204;6.568;2023-05-21T02:52:06;10.27;;;5.63;;
53533;SDS011;39421;53.204;6.568;2023-05-21T02:54:32;10.43;;;5.47;;
53533;SDS011;39421;53.204;6.568;2023-05-21T02:56:58;11.48;;;5.78;;
53533;SDS011;39421;53.204;6.568;2023-05-21T02:59:25;10.10;;;5.53;;
53533;SDS011;39421;53.204;6.568;2023-05-21T03:01:51;10.65;;;5.65;;
53533;SDS011;39421;53.204;6.568;2023-05-21T03:04:17;12.45;;;5.45;;
53533;SDS011;39421;53.204;6.568;2023-05-21T03:06:46;11.98;;;6.05;;
53533;SDS011;39421;53.204;6.568;2023-05-21T03:09:12;11.02;;;5.80;;
53533;SDS011;39421;53.204;6.568;2023-05-21T03:11:38;11.32;;;5.82;;
53533;SDS011;39421;53.204;6.568;2023-05-21T03:14:04;11.57;;;6.30;;
53533;SDS011;39421;53.204;6.568;2023-05-21T03:16:31;13.45;;;6.28;;
53533;SDS011;39421;53.204;6.568;2023-05-21T03:18:58;12.27;;;6.45;;
53533;SDS011;39421;53.204;6.568;2023-05-21T03:21:25;12.65;;;6.25;;
53533;SDS011;39421;53.204;6.568;2023-05-21T03:23:54;12.55;;;6.03;;
53533;SDS011;39421;53.204;6.568;2023-05-21T03:26:24;11.90;;;6.13;;
53533;SDS011;39421;53.204;6.568;2023-05-21T03:28:51;11.55;;;5.82;;
53533;SDS011;39421;53.204;6.568;2023-05-21T03:31:18;12.05;;;6.22;;
53533;SDS011;39421;53.204;6.568;2023-05-21T03:33:44;12.43;;;5.90;;
53533;SDS011;39421;53.204;6.568;2023-05-21T03:36:11;10.82;;;5.78;;
53533;SDS011;39421;53.204;6.568;2023-05-21T03:38:37;12.43;;;5.90;;
53533;SDS011;39421;53.204;6.568;2023-05-21T03:41:03;11.32;;;5.65;;
53533;SDS011;39421;53.204;6.568;2023-05-21T03:43:29;11.88;;;5.72;;
53533;SDS011;39421;53.204;6.568;2023-05-21T03:45:55;11.45;;;5.80;;
53533;SDS011;39421;53.204;6.568;2023-05-21T03:48:21;11.38;;;5.68;;
53533;SDS011;39421;53.204;6.568;2023-05-21T03:50:48;11.63;;;5.70;;
53533;SDS011;39421;53.204;6.568;2023-05-21T03:53:14;11.23;;;5.68;;
53533;SDS011;39421;53.204;6.568;2023-05-21T03:55:40;12.07;;;5.72;;
53533;SDS011;39421;53.204;6.568;2023-05-21T03:58:06;11.02;;;5.90;;
53533;SDS011;39421;53.204;6.568;2023-05-21T04:00:33;11.60;;;6.05;;
53533;SDS011;39421;53.204;6.568;2023-05-21T04:03:03;11.50;;;5.50;;
53533;SDS011;39421;53.204;6.568;2023-05-21T04:05:31;12.00;;;5.20;;
53533;SDS011;39421;53.204;6.568;2023-05-21T04:07:59;12.30;;;5.30;;
53533;SDS011;39421;53.204;6.568;2023-05-21T04:10:26;10.77;;;5.47;;
53533;SDS011;39421;53.204;6.568;2023-05-21T04:12:52;11.55;;;5.32;;
53533;SDS011;39421;53.204;6.568;2023-05-21T04:15:18;10.57;;;5.05;;
53533;SDS011;39421;53.204;6.568;2023-05-21T04:17:44;10.33;;;5.27;;
53533;SDS011;39421;53.204;6.568;2023-05-21T04:20:11;11.37;;;5.13;;
53533;SDS011;39421;53.204;6.568;2023-05-21T04:22:38;10.57;;;4.85;;
53533;SDS011;39421;53.204;6.568;2023-05-21T04:25:04;11.95;;;5.30;;
53533;SDS011;39421;53.204;6.568;2023-05-21T04:27:31;11.38;;;5.03;;
53533;SDS011;39421;53.204;6.568;2023-05-21T04:29:58;11.00;;;4.93;;
53533;SDS011;39421;53.204;6.568;2023-05-21T04:32:24;12.77;;;5.13;;
53533;SDS011;39421;53.204;6.568;2023-05-21T04:34:52;11.07;;;5.10;;
53533;SDS011;39421;53.204;6.568;2023-05-21T04:37:18;11.07;;;4.80;;
53533;SDS011;39421;53.204;6.568;2023-05-21T04:39:48;12.18;;;4.70;;
53533;SDS011;39421;53.204;6.568;2023-05-21T04:42:14;9.45;;;4.60;;
53533;SDS011;39421;53.204;6.568;2023-05-21T04:44:41;11.90;;;4.93;;
53533;SDS011;39421;53.204;6.568;2023-05-21T04:47:08;10.90;;;4.80;;
53533;SDS011;39421;53.204;6.568;2023-05-21T04:49:36;9.00;;;4.32;;
53533;SDS011;39421;53.204;6.568;2023-05-21T04:52:02;10.23;;;4.43;;
53533;SDS011;39421;53.204;6.568;2023-05-21T04:54:28;11.40;;;4.80;;
53533;SDS011;39421;53.204;6.568;2023-05-21T04:56:54;10.00;;;4.35;;
53533;SDS011;39421;53.204;6.568;2023-05-21T04:59:22;12.20;;;4.80;;
53533;SDS011;39421;53.204;6.568;2023-05-21T05:01:48;11.27;;;4.50;;
53533;SDS011;39421;53.204;6.568;2023-05-21T05:04:14;9.48;;;4.43;;
53533;SDS011;39421;53.204;6.568;2023-05-21T05:06:40;10.25;;;4.40;;
53533;SDS011;39421;53.204;6.568;2023-05-21T05:09:06;9.32;;;4.00;;
53533;SDS011;39421;53.204;6.568;2023-05-21T05:11:33;10.38;;;4.63;;
53533;SDS011;39421;53.204;6.568;2023-05-21T05:13:59;9.70;;;4.10;;
53533;SDS011;39421;53.204;6.568;2023-05-21T05:16:25;10.20;;;4.32;;
53533;SDS011;39421;53.204;6.568;2023-05-21T05:18:51;8.70;;;4.15;;
53533;SDS011;39421;53.204;6.568;2023-05-21T05:21:19;9.43;;;3.95;;
53533;SDS011;39421;53.204;6.568;2023-05-21T05:23:45;10.57;;;4.22;;
53533;SDS011;39421;53.204;6.568;2023-05-21T05:26:11;10.70;;;4.27;;
53533;SDS011;39421;53.204;6.568;2023-05-21T05:28:37;8.57;;;3.97;;
53533;SDS011;39421;53.204;6.568;2023-05-21T05:31:03;11.20;;;4.28;;
53533;SDS011;39421;53.204;6.568;2023-05-21T05:33:29;10.23;;;4.20;;
53533;SDS011;39421;53.204;6.568;2023-05-21T05:35:56;9.00;;;3.97;;
53533;SDS011;39421;53.204;6.568;2023-05-21T05:38:22;10.02;;;4.10;;
53533;SDS011;39421;53.204;6.568;2023-05-21T05:40:48;10.17;;;4.43;;
53533;SDS011;39421;53.204;6.568;2023-05-21T05:43:14;11.10;;;4.32;;
53533;SDS011;39421;53.204;6.568;2023-05-21T05:45:40;9.32;;;4.10;;
53533;SDS011;39421;53.204;6.568;2023-05-21T05:48:06;10.77;;;4.27;;
53533;SDS011;39421;53.204;6.568;2023-05-21T05:50:32;9.82;;;3.90;;
53533;SDS011;39421;53.204;6.568;2023-05-21T05:52:59;9.73;;;4.28;;
53533;SDS011;39421;53.204;6.568;2023-05-21T05:55:25;11.38;;;4.25;;
53533;SDS011;39421;53.204;6.568;2023-05-21T05:57:51;9.60;;;4.63;;
53533;SDS011;39421;53.204;6.568;2023-05-21T06:00:17;9.57;;;4.45;;
53533;SDS011;39421;53.204;6.568;2023-05-21T06:02:44;10.38;;;4.20;;
53533;SDS011;39421;53.204;6.568;2023-05-21T06:05:10;10.30;;;4.40;;
53533;SDS011;39421;53.204;6.568;2023-05-21T06:07:36;9.93;;;3.95;;
53533;SDS011;39421;53.204;6.568;2023-05-21T06:10:04;10.20;;;4.18;;
53533;SDS011;39421;53.204;6.568;2023-05-21T06:12:30;10.30;;;4.05;;
53533;SDS011;39421;53.204;6.568;2023-05-21T06:14:56;9.15;;;4.40;;
53533;SDS011;39421;53.204;6.568;2023-05-21T06:17:22;9.63;;;4.20;;
53533;SDS011;39421;53.204;6.568;2023-05-21T06:19:49;9.90;;;4.00;;
53533;SDS011;39421;53.204;6.568;2023-05-21T06:22:15;10.02;;;4.03;;
53533;SDS011;39421;53.204;6.568;2023-05-21T06:24:41;9.67;;;4.00;;
53533;SDS011;39421;53.204;6.568;2023-05-21T06:27:07;9.23;;;3.97;;
53533;SDS011;39421;53.204;6.568;2023-05-21T06:29:33;8.95;;;4.05;;
53533;SDS011;39421;53.204;6.568;2023-05-21T06:31:59;9.85;;;4.05;;
53533;SDS011;39421;53.204;6.568;2023-05-21T06:34:25;9.23;;;3.88;;
53533;SDS011;39421;53.204;6.568;2023-05-21T06:36:52;9.90;;;3.63;;
53533;SDS011;39421;53.204;6.568;2023-05-21T06:39:19;9.48;;;4.03;;
53533;SDS011;39421;53.204;6.568;2023-05-21T06:41:45;10.45;;;4.20;;
53533;SDS011;39421;53.204;6.568;2023-05-21T06:44:11;10.87;;;4.50;;
53533;SDS011;39421;53.204;6.568;2023-05-21T06:46:37;10.20;;;4.38;;
53533;SDS011;39421;53.204;6.568;2023-05-21T06:49:03;9.68;;;4.35;;
53533;SDS011;39421;53.204;6.568;2023-05-21T06:51:31;9.07;;;3.95;;
53533;SDS011;39421;53.204;6.568;2023-05-21T06:53:57;10.18;;;4.43;;
53533;SDS011;39421;53.204;6.568;2023-05-21T06:56:23;9.90;;;4.60;;
53533;SDS011;39421;53.204;6.568;2023-05-21T06:58:50;10.15;;;4.65;;
53533;SDS011;39421;53.204;6.568;2023-05-21T07:01:17;9.95;;;4.55;;
53533;SDS011;39421;53.204;6.568;2023-05-21T07:03:43;10.87;;;4.40;;
53533;SDS011;39421;53.204;6.568;2023-05-21T07:06:09;11.07;;;4.55;;
53533;SDS011;39421;53.204;6.568;2023-05-21T07:08:35;10.10;;;4.80;;
53533;SDS011;39421;53.204;6.568;2023-05-21T07:11:02;12.05;;;5.15;;
53533;SDS011;39421;53.204;6.568;2023-05-21T07:13:28;10.73;;;4.60;;
53533;SDS011;39421;53.204;6.568;2023-05-21T07:15:54;10.63;;;4.97;;
53533;SDS011;39421;53.204;6.568;2023-05-21T07:18:20;11.27;;;4.47;;
53533;SDS011;39421;53.204;6.568;2023-05-21T07:20:47;11.25;;;4.65;;
53533;SDS011;39421;53.204;6.568;2023-05-21T07:23:13;10.40;;;4.35;;
53533;SDS011;39421;53.204;6.568;2023-05-21T07:25:39;11.02;;;4.65;;
53533;SDS011;39421;53.204;6.568;2023-05-21T07:28:05;11.05;;;4.40;;
53533;SDS011;39421;53.204;6.568;2023-05-21T07:30:31;9.93;;;4.38;;
53533;SDS011;39421;53.204;6.568;2023-05-21T07:32:57;9.75;;;4.50;;
53533;SDS011;39421;53.204;6.568;2023-05-21T07:35:23;9.43;;;4.10;;
53533;SDS011;39421;53.204;6.568;2023-05-21T07:37:49;9.13;;;4.00;;
53533;SDS011;39421;53.204;6.568;2023-05-21T07:40:16;11.32;;;3.85;;
53533;SDS011;39421;53.204;6.568;2023-05-21T07:42:42;9.05;;;3.92;;
53533;SDS011;39421;53.204;6.568;2023-05-21T07:45:08;9.95;;;3.60;;
53533;SDS011;39421;53.204;6.568;2023-05-21T07:47:34;8.70;;;3.70;;
53533;SDS011;39421;53.204;6.568;2023-05-21T07:50:00;10.43;;;3.80;;
53533;SDS011;39421;53.204;6.568;2023-05-21T07:52:26;9.00;;;3.55;;
53533;SDS011;39421;53.204;6.568;2023-05-21T07:54:53;9.27;;;3.90;;
53533;SDS011;39421;53.204;6.568;2023-05-21T07:57:19;9.38;;;3.50;;
53533;SDS011;39421;53.204;6.568;2023-05-21T07:59:45;10.02;;;4.18;;
53533;SDS011;39421;53.204;6.568;2023-05-21T08:02:11;10.38;;;3.97;;
53533;SDS011;39421;53.204;6.568;2023-05-21T08:04:37;9.32;;;3.72;;
53533;SDS011;39421;53.204;6.568;2023-05-21T08:07:04;8.85;;;3.85;;
53533;SDS011;39421;53.204;6.568;2023-05-21T08:09:30;10.65;;;3.83;;
53533;SDS011;39421;53.204;6.568;2023-05-21T08:11:56;10.02;;;3.83;;
53533;SDS011;39421;53.204;6.568;2023-05-21T08:14:22;9.00;;;3.78;;
53533;SDS011;39421;53.204;6.568;2023-05-21T08:16:48;9.77;;;3.97;;
53533;SDS011;39421;53.204;6.568;2023-05-21T08:19:15;10.20;;;3.80;;
53533;SDS011;39421;53.204;6.568;2023-05-21T08:21:41;9.13;;;3.60;;
53533;SDS011;39421;53.204;6.568;2023-05-21T08:24:07;8.48;;;3.67;;
53533;SDS011;39421;53.204;6.568;2023-05-21T08:26:33;8.93;;;3.85;;
53533;SDS011;39421;53.204;6.568;2023-05-21T08:29:00;10.35;;;3.80;;
53533;SDS011;39421;53.204;6.568;2023-05-21T08:31:26;8.50;;;3.70;;
53533;SDS011;39421;53.204;6.568;2023-05-21T08:33:53;10.32;;;3.72;;
53533;SDS011;39421;53.204;6.568;2023-05-21T08:36:20;9.40;;;4.07;;
53533;SDS011;39421;53.204;6.568;2023-05-21T08:38:47;8.88;;;3.83;;
53533;SDS011;39421;53.204;6.568;2023-05-21T08:41:13;8.73;;;3.47;;
53533;SDS011;39421;53.204;6.568;2023-05-21T08:43:39;9.30;;;3.97;;
53533;SDS011;39421;53.204;6.568;2023-05-21T08:46:06;8.50;;;3.60;;
53533;SDS011;39421;53.204;6.568;2023-05-21T08:48:33;10.38;;;4.00;;
53533;SDS011;39421;53.204;6.568;2023-05-21T08:51:01;9.45;;;3.90;;
53533;SDS011;39421;53.204;6.568;2023-05-21T08:53:27;9.35;;;3.90;;
53533;SDS011;39421;53.204;6.568;2023-05-21T08:55:54;10.77;;;3.87;;
53533;SDS011;39421;53.204;6.568;2023-05-21T08:58:21;9.52;;;3.95;;
53533;SDS011;39421;53.204;6.568;2023-05-21T09:00:47;8.82;;;3.97;;
53533;SDS011;39421;53.204;6.568;2023-05-21T09:03:13;9.53;;;3.90;;
53533;SDS011;39421;53.204;6.568;2023-05-21T09:05:40;9.88;;;3.80;;
53533;SDS011;39421;53.204;6.568;2023-05-21T09:10:37;8.40;;;3.77;;
53533;SDS011;39421;53.204;6.568;2023-05-21T09:13:04;8.95;;;3.78;;
53533;SDS011;39421;53.204;6.568;2023-05-21T09:15:32;8.50;;;3.80;;
53533;SDS011;39421;53.204;6.568;2023-05-21T09:17:58;8.30;;;3.80;;
53533;SDS011;39421;53.204;6.568;2023-05-21T09:20:24;9.55;;;3.70;;
53533;SDS011;39421;53.204;6.568;2023-05-21T09:22:51;9.60;;;3.83;;
53533;SDS011;39421;53.204;6.568;2023-05-21T09:25:19;8.73;;;3.72;;
53533;SDS011;39421;53.204;6.568;2023-05-21T09:27:46;8.82;;;3.70;;
53533;SDS011;39421;53.204;6.568;2023-05-21T09:30:14;9.35;;;3.55;;
53533;SDS011;39421;53.204;6.568;2023-05-21T09:32:41;7.88;;;3.42;;
53533;SDS011;39421;53.204;6.568;2023-05-21T09:35:08;10.20;;;3.85;;
53533;SDS011;39421;53.204;6.568;2023-05-21T09:37:42;9.90;;;3.60;;
53533;SDS011;39421;53.204;6.568;2023-05-21T09:40:30;8.02;;;3.42;;
53533;SDS011;39421;53.204;6.568;2023-05-21T09:42:55;9.05;;;3.75;;
53533;SDS011;39421;53.204;6.568;2023-05-21T09:45:24;10.65;;;3.47;;
53533;SDS011;39421;53.204;6.568;2023-05-21T09:47:51;8.23;;;3.45;;
53533;SDS011;39421;53.204;6.568;2023-05-21T09:50:18;9.73;;;3.70;;
53533;SDS011;39421;53.204;6.568;2023-05-21T09:52:45;8.95;;;3.70;;
53533;SDS011;39421;53.204;6.568;2023-05-21T09:55:11;8.88;;;3.83;;
53533;SDS011;39421;53.204;6.568;2023-05-21T09:57:41;7.95;;;3.42;;
53533;SDS011;39421;53.204;6.568;2023-05-21T10:00:08;10.68;;;4.07;;
53533;SDS011;39421;53.204;6.568;2023-05-21T10:02:36;9.18;;;3.63;;
53533;SDS011;39421;53.204;6.568;2023-05-21T10:05:02;8.32;;;3.53;;
53533;SDS011;39421;53.204;6.568;2023-05-21T10:07:30;7.90;;;3.28;;
53533;SDS011;39421;53.204;6.568;2023-05-21T10:09:56;9.50;;;3.67;;
53533;SDS011;39421;53.204;6.568;2023-05-21T10:12:24;8.55;;;3.60;;
53533;SDS011;39421;53.204;6.568;2023-05-21T10:14:53;9.40;;;3.60;;
53533;SDS011;39421;53.204;6.568;2023-05-21T10:17:25;7.70;;;3.33;;
53533;SDS011;39421;53.204;6.568;2023-05-21T10:19:53;10.32;;;3.50;;
53533;SDS011;39421;53.204;6.568;2023-05-21T10:22:21;8.93;;;3.47;;
53533;SDS011;39421;53.204;6.568;2023-05-21T10:24:47;8.10;;;3.20;;
53533;SDS011;39421;53.204;6.568;2023-05-21T10:27:14;7.72;;;3.30;;
53533;SDS011;39421;53.204;6.568;2023-05-21T10:29:42;8.18;;;3.20;;
53533;SDS011;39421;53.204;6.568;2023-05-21T10:32:08;7.50;;;3.13;;
53533;SDS011;39421;53.204;6.568;2023-05-21T10:34:36;8.18;;;3.38;;
53533;SDS011;39421;53.204;6.568;2023-05-21T10:37:03;8.30;;;3.13;;
53533;SDS011;39421;53.204;6.568;2023-05-21T10:39:29;8.63;;;3.20;;
53533;SDS011;39421;53.204;6.568;2023-05-21T10:55:37;8.82;;;3.45;;
53533;SDS011;39421;53.204;6.568;2023-05-21T11:00:52;9.10;;;3.60;;
53533;SDS011;39421;53.204;6.568;2023-05-21T11:03:19;8.67;;;3.20;;
53533;SDS011;39421;53.204;6.568;2023-05-21T11:05:53;8.93;;;3.67;;
53533;SDS011;39421;53.204;6.568;2023-05-21T11:08:29;10.27;;;3.67;;
53533;SDS011;39421;53.204;6.568;2023-05-21T11:10:57;9.85;;;3.80;;
53533;SDS011;39421;53.204;6.568;2023-05-21T11:13:24;9.57;;;3.63;;
53533;SDS011;39421;53.204;6.568;2023-05-21T11:18:23;10.00;;;4.03;;
53533;SDS011;39421;53.204;6.568;2023-05-21T11:21:09;8.27;;;3.90;;
53533;SDS011;39421;53.204;6.568;2023-05-21T11:23:50;10.63;;;4.50;;
53533;SDS011;39421;53.204;6.568;2023-05-21T11:26:23;10.18;;;3.90;;
53533;SDS011;39421;53.204;6.568;2023-05-21T11:31:32;9.93;;;4.30;;
53533;SDS011;39421;53.204;6.568;2023-05-21T11:34:20;10.38;;;4.00;;
53533;SDS011;39421;53.204;6.568;2023-05-21T11:37:21;11.93;;;4.18;;
53533;SDS011;39421;53.204;6.568;2023-05-21T11:39:38;11.82;;;4.45;;
53533;SDS011;39421;53.204;6.568;2023-05-21T11:42:04;9.30;;;4.18;;
53533;SDS011;39421;53.204;6.568;2023-05-21T11:44:44;10.93;;;5.00;;
53533;SDS011;39421;53.204;6.568;2023-05-21T11:47:11;11.03;;;5.27;;
53533;SDS011;39421;53.204;6.568;2023-05-21T11:49:38;10.60;;;4.80;;
53533;SDS011;39421;53.204;6.568;2023-05-21T11:52:05;11.35;;;5.00;;
53533;SDS011;39421;53.204;6.568;2023-05-21T11:54:32;12.13;;;5.25;;
53533;SDS011;39421;53.204;6.568;2023-05-21T11:57:08;11.95;;;5.78;;
53533;SDS011;39421;53.204;6.568;2023-05-21T11:59:35;11.35;;;5.78;;
53533;SDS011;39421;53.204;6.568;2023-05-21T12:02:02;11.57;;;5.87;;
53533;SDS011;39421;53.204;6.568;2023-05-21T12:04:33;11.68;;;6.60;;
53533;SDS011;39421;53.204;6.568;2023-05-21T12:07:05;12.80;;;6.15;;
53533;SDS011;39421;53.204;6.568;2023-05-21T12:09:41;13.43;;;6.45;;
53533;SDS011;39421;53.204;6.568;2023-05-21T12:12:08;11.60;;;6.25;;
53533;SDS011;39421;53.204;6.568;2023-05-21T12:14:34;12.93;;;5.90;;
53533;SDS011;39421;53.204;6.568;2023-05-21T12:17:01;12.15;;;6.80;;
53533;SDS011;39421;53.204;6.568;2023-05-21T12:19:30;11.88;;;5.80;;
53533;SDS011;39421;53.204;6.568;2023-05-21T12:21:58;11.63;;;5.65;;
53533;SDS011;39421;53.204;6.568;2023-05-21T12:24:24;11.63;;;6.30;;
53533;SDS011;39421;53.204;6.568;2023-05-21T12:26:51;11.65;;;5.75;;
53533;SDS011;39421;53.204;6.568;2023-05-21T12:29:19;13.45;;;6.47;;
53533;SDS011;39421;53.204;6.568;2023-05-21T12:31:47;14.18;;;6.28;;
53533;SDS011;39421;53.204;6.568;2023-05-21T12:34:14;12.30;;;6.53;;
53533;SDS011;39421;53.204;6.568;2023-05-21T12:36:43;14.20;;;5.45;;
53533;SDS011;39421;53.204;6.568;2023-05-21T12:39:14;13.13;;;6.82;;
53533;SDS011;39421;53.204;6.568;2023-05-21T12:41:40;13.68;;;7.53;;
53533;SDS011;39421;53.204;6.568;2023-05-21T12:44:06;13.75;;;7.53;;
53533;SDS011;39421;53.204;6.568;2023-05-21T12:46:33;15.98;;;8.57;;
53533;SDS011;39421;53.204;6.568;2023-05-21T12:48:59;13.45;;;7.13;;
53533;SDS011;39421;53.204;6.568;2023-05-21T12:51:25;13.93;;;7.30;;
53533;SDS011;39421;53.204;6.568;2023-05-21T12:53:51;13.77;;;7.00;;
53533;SDS011;39421;53.204;6.568;2023-05-21T12:56:17;15.82;;;7.00;;
53533;SDS011;39421;53.204;6.568;2023-05-21T12:58:46;13.82;;;7.03;;
53533;SDS011;39421;53.204;6.568;2023-05-21T13:01:14;13.95;;;7.22;;
53533;SDS011;39421;53.204;6.568;2023-05-21T13:03:40;14.30;;;6.47;;
53533;SDS011;39421;53.204;6.568;2023-05-21T13:06:07;14.82;;;7.07;;
53533;SDS011;39421;53.204;6.568;2023-05-21T13:08:33;12.07;;;6.88;;
53533;SDS011;39421;53.204;6.568;2023-05-21T13:11:03;13.05;;;7.07;;
53533;SDS011;39421;53.204;6.568;2023-05-21T13:13:29;13.65;;;7.18;;
53533;SDS011;39421;53.204;6.568;2023-05-21T13:15:55;15.40;;;7.20;;
53533;SDS011;39421;53.204;6.568;2023-05-21T13:18:24;14.57;;;7.20;;
53533;SDS011;39421;53.204;6.568;2023-05-21T13:20:50;15.45;;;7.10;;
53533;SDS011;39421;53.204;6.568;2023-05-21T13:23:16;15.02;;;8.18;;
53533;SDS011;39421;53.204;6.568;2023-05-21T13:25:42;16.75;;;8.75;;
53533;SDS011;39421;53.204;6.568;2023-05-21T13:28:09;17.05;;;7.80;;
53533;SDS011;39421;53.204;6.568;2023-05-21T13:30:39;16.00;;;8.30;;
53533;SDS011;39421;53.204;6.568;2023-05-21T13:33:05;16.27;;;8.90;;
53533;SDS011;39421;53.204;6.568;2023-05-21T13:35:31;14.68;;;8.50;;
53533;SDS011;39421;53.204;6.568;2023-05-21T13:37:58;16.60;;;8.77;;
53533;SDS011;39421;53.204;6.568;2023-05-21T13:40:25;15.02;;;7.97;;
53533;SDS011;39421;53.204;6.568;2023-05-21T13:42:51;14.73;;;8.70;;
53533;SDS011;39421;53.204;6.568;2023-05-21T13:45:18;16.17;;;8.15;;
53533;SDS011;39421;53.204;6.568;2023-05-21T13:47:45;17.40;;;10.10;;
53533;SDS011;39421;53.204;6.568;2023-05-21T13:50:11;17.33;;;9.10;;
53533;SDS011;39421;53.204;6.568;2023-05-21T13:52:38;16.88;;;9.50;;
53533;SDS011;39421;53.204;6.568;2023-05-21T13:55:04;15.15;;;8.80;;
53533;SDS011;39421;53.204;6.568;2023-05-21T13:57:30;15.90;;;10.13;;
53533;SDS011;39421;53.204;6.568;2023-05-21T13:59:57;16.45;;;9.68;;
53533;SDS011;39421;53.204;6.568;2023-05-21T14:02:23;17.15;;;8.77;;
53533;SDS011;39421;53.204;6.568;2023-05-21T14:04:50;16.85;;;10.15;;
53533;SDS011;39421;53.204;6.568;2023-05-21T14:07:16;15.77;;;9.90;;
53533;SDS011;39421;53.204;6.568;2023-05-21T14:09:42;18.60;;;10.25;;
53533;SDS011;39421;53.204;6.568;2023-05-21T14:12:08;17.63;;;10.10;;
53533;SDS011;39421;53.204;6.568;2023-05-21T14:14:34;17.58;;;10.63;;
53533;SDS011;39421;53.204;6.568;2023-05-21T14:17:01;16.93;;;9.70;;
53533;SDS011;39421;53.204;6.568;2023-05-21T14:19:28;15.85;;;9.50;;
53533;SDS011;39421;53.204;6.568;2023-05-21T14:21:54;16.70;;;9.47;;
53533;SDS011;39421;53.204;6.568;2023-05-21T14:24:20;16.23;;;9.97;;
53533;SDS011;39421;53.204;6.568;2023-05-21T14:26:46;16.52;;;9.77;;
53533;SDS011;39421;53.204;6.568;2023-05-21T14:29:12;16.65;;;9.93;;
53533;SDS011;39421;53.204;6.568;2023-05-21T14:31:38;16.95;;;11.35;;
53533;SDS011;39421;53.204;6.568;2023-05-21T14:34:05;16.33;;;9.32;;
53533;SDS011;39421;53.204;6.568;2023-05-21T14:36:32;16.02;;;10.05;;
53533;SDS011;39421;53.204;6.568;2023-05-21T14:38:59;18.92;;;11.43;;
53533;SDS011;39421;53.204;6.568;2023-05-21T14:41:25;17.10;;;10.93;;
53533;SDS011;39421;53.204;6.568;2023-05-21T14:43:51;18.88;;;11.48;;
53533;SDS011;39421;53.204;6.568;2023-05-21T14:46:17;17.88;;;10.23;;
53533;SDS011;39421;53.204;6.568;2023-05-21T14:48:44;18.65;;;11.10;;
53533;SDS011;39421;53.204;6.568;2023-05-21T14:51:11;16.90;;;10.87;;
53533;SDS011;39421;53.204;6.568;2023-05-21T14:53:37;17.75;;;10.95;;
53533;SDS011;39421;53.204;6.568;2023-05-21T14:56:04;18.35;;;11.30;;
53533;SDS011;39421;53.204;6.568;2023-05-21T14:58:30;17.80;;;11.27;;
53533;SDS011;39421;53.204;6.568;2023-05-21T15:00:56;18.23;;;11.50;;
53533;SDS011;39421;53.204;6.568;2023-05-21T15:03:22;18.05;;;11.50;;